createdAt,value
2019-04-18T00:00:40.568Z,1029.04
2019-04-18T00:01:49.741Z,1029.02
2019-04-18T00:02:59.992Z,1029.06
2019-04-18T00:04:09.217Z,1029.04
2019-04-18T00:05:18.095Z,1029
2019-04-18T00:06:27.520Z,1029.04
2019-04-18T00:07:36.738Z,1029.02
2019-04-18T00:08:45.924Z,1029.01
2019-04-18T00:09:56.537Z,1029.03
2019-04-18T00:11:06.784Z,1029.01
2019-04-18T00:12:23.210Z,1029.02
2019-04-18T00:13:32.498Z,1029.05
2019-04-18T00:14:49.751Z,1029.05
2019-04-18T00:15:59.452Z,1029.02
2019-04-18T00:17:12.345Z,1029.03
2019-04-18T00:18:21.487Z,1029.05
2019-04-18T00:19:30.641Z,1029.01
2019-04-18T00:20:40.152Z,1029.02
2019-04-18T00:21:53.927Z,1029.03
2019-04-18T00:23:03.071Z,1029.01
2019-04-18T00:24:12.514Z,1029.05
2019-04-18T00:25:21.668Z,1029.01
2019-04-18T00:26:31.083Z,1029.04
2019-04-18T00:27:48.176Z,1029.01
2019-04-18T00:28:58.288Z,1029.04
2019-04-18T00:30:07.445Z,1028.97
2019-04-18T00:31:16.325Z,1028.97
2019-04-18T00:32:25.325Z,1028.99
2019-04-18T00:33:34.199Z,1028.98
2019-04-18T00:34:43.608Z,1029.01
2019-04-18T00:35:53.291Z,1029
2019-04-18T00:37:03.057Z,1028.99
2019-04-18T00:38:12.336Z,1028.99
2019-04-18T00:39:21.222Z,1028.98
2019-04-18T00:40:30.373Z,1029.02
2019-04-18T00:41:46.124Z,1029
2019-04-18T00:42:56.897Z,1029
2019-04-18T00:44:06.592Z,1028.97
2019-04-18T00:45:16.112Z,1029.01
2019-04-18T00:46:25.013Z,1029
2019-04-18T00:47:34.449Z,1029
2019-04-18T00:48:43.586Z,1029
2019-04-18T00:49:55.445Z,1029.03
2019-04-18T00:51:04.980Z,1029.02
2019-04-18T00:52:16.905Z,1029.01
2019-04-18T00:53:27.030Z,1029.03
2019-04-18T00:54:36.172Z,1029.07
2019-04-18T00:55:45.067Z,1029.05
2019-04-18T00:56:54.309Z,1029.1
2019-04-18T00:58:12.495Z,1029.03
2019-04-18T00:59:25.623Z,1029.08
2019-04-18T01:00:37.721Z,1029.07
2019-04-18T01:01:47.265Z,1029.07
2019-04-18T01:02:57.090Z,1029.1
2019-04-18T01:04:06.771Z,1029.13
2019-04-18T01:05:35.563Z,1029.13
2019-04-18T01:06:48.828Z,1029.12
2019-04-18T01:08:01.728Z,1029.16
2019-04-18T01:09:10.757Z,1029.16
2019-04-18T01:10:19.896Z,1029.2
2019-04-18T01:11:28.871Z,1029.16
2019-04-18T01:12:38.020Z,1029.18
2019-04-18T01:13:46.905Z,1029.19
2019-04-18T01:14:56.063Z,1029.14
2019-04-18T01:16:06.092Z,1029.15
2019-04-18T01:17:15.106Z,1029.12
2019-04-18T01:18:23.988Z,1029.17
2019-04-18T01:19:33.133Z,1029.17
2019-04-18T01:20:42.016Z,1029.17
2019-04-18T01:21:51.178Z,1029.18
2019-04-18T01:23:01.229Z,1029.21
2019-04-18T01:24:10.890Z,1029.19
2019-04-18T01:25:19.807Z,1029.25
2019-04-18T01:26:32.539Z,1029.21
2019-04-18T01:27:45.960Z,1029.21
2019-04-18T01:28:58.651Z,1029.24
2019-04-18T01:30:08.106Z,1029.26
2019-04-18T01:31:17.269Z,1029.23
2019-04-18T01:32:26.147Z,1029.26
2019-04-18T01:33:36.342Z,1029.23
2019-04-18T01:34:48.942Z,1029.23
2019-04-18T01:35:58.718Z,1029.22
2019-04-18T01:37:07.902Z,1029.2
2019-04-18T01:38:17.046Z,1029.22
2019-04-18T01:39:26.456Z,1029.28
2019-04-18T01:40:35.645Z,1029.24
2019-04-18T01:41:44.785Z,1029.24
2019-04-18T01:42:59.139Z,1029.26
2019-04-18T01:44:14.446Z,1029.29
2019-04-18T01:45:23.926Z,1029.28
2019-04-18T01:46:33.075Z,1029.27
2019-04-18T01:47:41.964Z,1029.27
2019-04-18T01:48:51.657Z,1029.29
2019-04-18T01:50:00.578Z,1029.32
2019-04-18T01:51:21.109Z,1029.31
2019-04-18T01:52:30.623Z,1029.29
2019-04-18T01:53:39.493Z,1029.29
2019-04-18T01:54:48.923Z,1029.28
2019-04-18T01:55:58.067Z,1029.29
2019-04-18T01:57:07.909Z,1029.26
2019-04-18T01:58:16.887Z,1029.33
2019-04-18T01:59:26.027Z,1029.38
2019-04-18T02:00:38.169Z,1029.39
2019-04-18T02:01:55.761Z,1029.36
2019-04-18T02:03:05.573Z,1029.39
2019-04-18T02:04:14.774Z,1029.4
2019-04-18T02:05:23.654Z,1029.43
2019-04-18T02:06:37.999Z,1029.45
2019-04-18T02:07:48.237Z,1029.43
2019-04-18T02:08:57.162Z,1029.44
2019-04-18T02:10:06.747Z,1029.43
2019-04-18T02:11:15.616Z,1029.43
2019-04-18T02:12:24.762Z,1029.46
2019-04-18T02:13:33.900Z,1029.44
2019-04-18T02:14:43.100Z,1029.46
2019-04-18T02:15:52.269Z,1029.46
2019-04-18T02:17:15.766Z,1029.47
2019-04-18T02:18:26.580Z,1029.48
2019-04-18T02:19:35.740Z,1029.49
2019-04-18T02:20:44.883Z,1029.47
2019-04-18T02:21:54.031Z,1029.51
2019-04-18T02:23:03.178Z,1029.46
2019-04-18T02:24:12.729Z,1029.47
2019-04-18T02:25:21.603Z,1029.48
2019-04-18T02:26:30.577Z,1029.53
2019-04-18T02:27:39.717Z,1029.53
2019-04-18T02:28:48.860Z,1029.52
2019-04-18T02:29:58.122Z,1029.54
2019-04-18T02:31:09.002Z,1029.55
2019-04-18T02:32:18.275Z,1029.58
2019-04-18T02:33:27.150Z,1029.55
2019-04-18T02:34:36.067Z,1029.56
2019-04-18T02:35:45.209Z,1029.53
2019-04-18T02:36:54.648Z,1029.55
2019-04-18T02:38:07.861Z,1029.55
2019-04-18T02:39:27.814Z,1029.52
2019-04-18T02:40:37.012Z,1029.57
2019-04-18T02:41:45.889Z,1029.56
2019-04-18T02:42:55.034Z,1029.53
2019-04-18T02:44:04.076Z,1029.54
2019-04-18T02:45:13.112Z,1029.53
2019-04-18T02:46:22.256Z,1029.57
2019-04-18T02:47:31.677Z,1029.54
2019-04-18T02:48:40.827Z,1029.54
2019-04-18T02:49:49.698Z,1029.56
2019-04-18T02:51:05.580Z,1029.57
2019-04-18T02:52:24.628Z,1029.54
2019-04-18T02:53:33.796Z,1029.54
2019-04-18T02:54:44.632Z,1029.58
2019-04-18T02:55:53.751Z,1029.58
2019-04-18T02:57:03.006Z,1029.54
2019-04-18T02:58:12.186Z,1029.52
2019-04-18T02:59:21.328Z,1029.53
2019-04-18T03:00:30.547Z,1029.56
2019-04-18T03:01:39.423Z,1029.53
2019-04-18T03:02:48.292Z,1029.51
2019-04-18T03:03:57.253Z,1029.53
2019-04-18T03:05:06.401Z,1029.52
2019-04-18T03:06:16.175Z,1029.5
2019-04-18T03:07:25.412Z,1029.53
2019-04-18T03:08:34.566Z,1029.52
2019-04-18T03:09:43.708Z,1029.52
2019-04-18T03:10:52.944Z,1029.55
2019-04-18T03:12:02.880Z,1029.49
2019-04-18T03:13:12.306Z,1029.48
2019-04-18T03:14:21.723Z,1029.49
2019-04-18T03:15:30.590Z,1029.49
2019-04-18T03:16:39.995Z,1029.49
2019-04-18T03:17:48.966Z,1029.53
2019-04-18T03:19:05.455Z,1029.48
2019-04-18T03:20:20.779Z,1029.47
2019-04-18T03:21:29.934Z,1029.53
2019-04-18T03:22:39.072Z,1029.51
2019-04-18T03:23:48.225Z,1029.49
2019-04-18T03:24:57.104Z,1029.51
2019-04-18T03:26:05.994Z,1029.47
2019-04-18T03:27:15.163Z,1029.5
2019-04-18T03:28:24.687Z,1029.5
2019-04-18T03:29:33.558Z,1029.48
2019-04-18T03:30:42.478Z,1029.49
2019-04-18T03:31:57.781Z,1029.5
2019-04-18T03:33:18.206Z,1029.51
2019-04-18T03:34:30.992Z,1029.49
2019-04-18T03:35:48.659Z,1029.51
2019-04-18T03:37:05.944Z,1029.46
2019-04-18T03:38:15.685Z,1029.48
2019-04-18T03:39:24.553Z,1029.53
2019-04-18T03:40:33.691Z,1029.5
2019-04-18T03:41:42.833Z,1029.46
2019-04-18T03:42:52.252Z,1029.51
2019-04-18T03:44:14.220Z,1029.47
2019-04-18T03:45:24.916Z,1029.48
2019-04-18T03:46:34.066Z,1029.46
2019-04-18T03:47:43.480Z,1029.55
2019-04-18T03:48:55.631Z,1029.55
2019-04-18T03:50:15.873Z,1029.49
2019-04-18T03:51:26.193Z,1029.54
2019-04-18T03:52:35.596Z,1029.54
2019-04-18T03:53:44.470Z,1029.49
2019-04-18T03:54:53.357Z,1029.53
2019-04-18T03:56:03.408Z,1029.49
2019-04-18T03:57:13.015Z,1029.53
2019-04-18T03:58:22.436Z,1029.54
2019-04-18T03:59:31.849Z,1029.54
2019-04-18T04:00:40.993Z,1029.57
2019-04-18T04:01:50.188Z,1029.6
2019-04-18T04:03:11.088Z,1029.6
2019-04-18T04:04:24.176Z,1029.58
2019-04-18T04:05:33.324Z,1029.54
2019-04-18T04:06:42.195Z,1029.63
2019-04-18T04:07:58.491Z,1029.59
2019-04-18T04:09:08.012Z,1029.61
2019-04-18T04:10:17.154Z,1029.63
2019-04-18T04:11:26.304Z,1029.64
2019-04-18T04:12:35.179Z,1029.65
2019-04-18T04:13:44.862Z,1029.62
2019-04-18T04:14:54.001Z,1029.68
2019-04-18T04:16:04.614Z,1029.66
2019-04-18T04:17:13.573Z,1029.68
2019-04-18T04:18:22.612Z,1029.65
2019-04-18T04:19:31.756Z,1029.66
2019-04-18T04:20:40.640Z,1029.7
2019-04-18T04:21:49.608Z,1029.67
2019-04-18T04:22:58.757Z,1029.67
2019-04-18T04:24:08.597Z,1029.73
2019-04-18T04:25:17.477Z,1029.76
2019-04-18T04:26:26.885Z,1029.74
2019-04-18T04:27:35.763Z,1029.73
2019-04-18T04:28:44.918Z,1029.78
2019-04-18T04:29:54.114Z,1029.76
2019-04-18T04:31:10.973Z,1029.76
2019-04-18T04:32:30.261Z,1029.77
2019-04-18T04:33:40.200Z,1029.85
2019-04-18T04:34:49.442Z,1029.83
2019-04-18T04:36:01.331Z,1029.86
2019-04-18T04:37:37.983Z,1029.85
2019-04-18T04:38:52.269Z,1029.85
2019-04-18T04:40:02.170Z,1029.89
2019-04-18T04:41:13.944Z,1029.89
2019-04-18T04:42:23.690Z,1029.9
2019-04-18T04:43:32.838Z,1029.93
2019-04-18T04:44:42.276Z,1029.95
2019-04-18T04:45:51.210Z,1029.98
2019-04-18T04:47:05.887Z,1029.98
2019-04-18T04:48:23.989Z,1030.01
2019-04-18T04:49:35.812Z,1029.97
2019-04-18T04:50:45.231Z,1030.02
2019-04-18T04:51:55.077Z,1030.03
2019-04-18T04:53:04.124Z,1030
2019-04-18T04:54:13.023Z,1030.06
2019-04-18T04:55:25.868Z,1030.05
2019-04-18T04:56:38.108Z,1030.01
2019-04-18T04:57:54.751Z,1030.03
2019-04-18T04:59:11.762Z,1030.03
2019-04-18T05:00:24.078Z,1030.05
2019-04-18T05:01:33.906Z,1030
2019-04-18T05:02:43.064Z,1030.04
2019-04-18T05:03:52.019Z,1030.12
2019-04-18T05:05:00.916Z,1030.14
2019-04-18T05:06:10.729Z,1030.14
2019-04-18T05:07:35.817Z,1030.12
2019-04-18T05:08:44.691Z,1030.15
2019-04-18T05:09:53.578Z,1030.15
2019-04-18T05:11:02.750Z,1030.17
2019-04-18T05:12:12.235Z,1030.18
2019-04-18T05:13:24.308Z,1030.17
2019-04-18T05:14:35.731Z,1030.2
2019-04-18T05:15:45.967Z,1030.22
2019-04-18T05:16:58.489Z,1030.23
2019-04-18T05:18:07.820Z,1030.25
2019-04-18T05:19:18.226Z,1030.22
2019-04-18T05:20:27.640Z,1030.26
2019-04-18T05:21:39.515Z,1030.24
2019-04-18T05:22:54.468Z,1030.26
2019-04-18T05:24:03.743Z,1030.24
2019-04-18T05:25:16.708Z,1030.22
2019-04-18T05:26:25.856Z,1030.26
2019-04-18T05:27:35.281Z,1030.29
2019-04-18T05:28:44.194Z,1030.28
2019-04-18T05:29:53.625Z,1030.23
2019-04-18T05:31:02.562Z,1030.25
2019-04-18T05:32:17.113Z,1030.29
2019-04-18T05:33:30.183Z,1030.28
2019-04-18T05:34:43.760Z,1030.3
2019-04-18T05:36:01.099Z,1030.31
2019-04-18T05:37:13.012Z,1030.34
2019-04-18T05:38:24.993Z,1030.34
2019-04-18T05:39:34.134Z,1030.37
2019-04-18T05:40:43.012Z,1030.34
2019-04-18T05:41:52.208Z,1030.39
2019-04-18T05:43:03.639Z,1030.42
2019-04-18T05:44:13.203Z,1030.46
2019-04-18T05:45:24.834Z,1030.42
2019-04-18T05:46:34.192Z,1030.45
2019-04-18T05:47:43.063Z,1030.4
2019-04-18T05:48:51.943Z,1030.45
2019-04-18T05:50:10.647Z,1030.46
2019-04-18T05:51:21.726Z,1030.45
2019-04-18T05:52:30.673Z,1030.47
2019-04-18T05:53:39.598Z,1030.43
2019-04-18T05:54:48.469Z,1030.41
2019-04-18T05:55:57.883Z,1030.4
2019-04-18T05:57:06.893Z,1030.48
2019-04-18T05:58:16.258Z,1030.45
2019-04-18T05:59:25.776Z,1030.44
2019-04-18T06:00:34.719Z,1030.47
2019-04-18T06:01:44.124Z,1030.45
2019-04-18T06:02:53.230Z,1030.51
2019-04-18T06:04:02.630Z,1030.5
2019-04-18T06:05:12.224Z,1030.53
2019-04-18T06:06:21.098Z,1030.51
2019-04-18T06:07:30.249Z,1030.51
2019-04-18T06:08:43.690Z,1030.58
2019-04-18T06:09:52.843Z,1030.55
2019-04-18T06:11:01.771Z,1030.59
2019-04-18T06:12:12.095Z,1030.55
2019-04-18T06:13:21.559Z,1030.63
2019-04-18T06:14:30.792Z,1030.57
2019-04-18T06:15:43.793Z,1030.59
2019-04-18T06:17:02.485Z,1030.65
2019-04-18T06:18:13.026Z,1030.63
2019-04-18T06:19:23.236Z,1030.62
2019-04-18T06:20:33.895Z,1030.61
2019-04-18T06:21:43.614Z,1030.64
2019-04-18T06:22:53.131Z,1030.63
2019-04-18T06:24:02.287Z,1030.66
2019-04-18T06:25:17.471Z,1030.69
2019-04-18T06:26:31.432Z,1030.64
2019-04-18T06:27:41.058Z,1030.69
2019-04-18T06:28:50.044Z,1030.73
2019-04-18T06:29:59.196Z,1030.71
2019-04-18T06:31:11.735Z,1030.71
2019-04-18T06:32:21.846Z,1030.71
2019-04-18T06:33:36.087Z,1030.72
2019-04-18T06:34:45.400Z,1030.78
2019-04-18T06:35:54.276Z,1030.77
2019-04-18T06:37:03.690Z,1030.74
2019-04-18T06:38:36.080Z,1030.79
2019-04-18T06:39:49.055Z,1030.72
2019-04-18T06:41:05.364Z,1030.79
2019-04-18T06:42:17.630Z,1030.79
2019-04-18T06:43:27.636Z,1030.78
2019-04-18T06:44:36.585Z,1030.74
2019-04-18T06:45:45.784Z,1030.78
2019-04-18T06:46:54.964Z,1030.79
2019-04-18T06:48:04.789Z,1030.77
2019-04-18T06:49:14.481Z,1030.76
2019-04-18T06:50:25.283Z,1030.8
2019-04-18T06:51:34.408Z,1030.77
2019-04-18T06:52:43.287Z,1030.82
2019-04-18T06:53:55.818Z,1030.82
2019-04-18T06:55:05.837Z,1030.87
2019-04-18T06:56:17.257Z,1030.83
2019-04-18T06:57:27.755Z,1030.89
2019-04-18T06:58:42.698Z,1030.87
2019-04-18T06:59:56.777Z,1030.89
2019-04-18T07:01:05.984Z,1030.9
2019-04-18T07:02:15.227Z,1030.94
2019-04-18T07:03:24.562Z,1030.92
2019-04-18T07:04:33.977Z,1030.91
2019-04-18T07:05:42.855Z,1030.95
2019-04-18T07:06:51.742Z,1030.9
2019-04-18T07:08:00.621Z,1030.9
2019-04-18T07:09:10.454Z,1030.91
2019-04-18T07:10:19.326Z,1030.92
2019-04-18T07:11:28.748Z,1030.93
2019-04-18T07:12:46.740Z,1030.94
2019-04-18T07:13:57.225Z,1030.94
2019-04-18T07:15:10.927Z,1030.93
2019-04-18T07:16:20.265Z,1030.96
2019-04-18T07:17:29.404Z,1030.97
2019-04-18T07:18:39.789Z,1030.97
2019-04-18T07:19:49.103Z,1030.98
2019-04-18T07:20:58.581Z,1031
2019-04-18T07:22:08.322Z,1031.02
2019-04-18T07:23:17.521Z,1031.03
2019-04-18T07:24:26.910Z,1031.05
2019-04-18T07:25:35.780Z,1031.1
2019-04-18T07:26:44.986Z,1031.05
2019-04-18T07:28:00.975Z,1031.08
2019-04-18T07:29:10.059Z,1031.06
2019-04-18T07:30:19.431Z,1031.1
2019-04-18T07:31:32.081Z,1031.07
2019-04-18T07:32:41.467Z,1031.08
2019-04-18T07:33:51.342Z,1031.09
2019-04-18T07:35:00.495Z,1031.08
2019-04-18T07:36:09.914Z,1031.07
2019-04-18T07:37:20.095Z,1031.06
2019-04-18T07:38:29.428Z,1031.07
2019-04-18T07:39:41.124Z,1031.04
2019-04-18T07:40:50.274Z,1031.08
2019-04-18T07:41:59.418Z,1031.06
2019-04-18T07:43:09.332Z,1031.07
2019-04-18T07:44:18.880Z,1031.06
2019-04-18T07:45:28.163Z,1031.05
2019-04-18T07:46:37.041Z,1031.06
2019-04-18T07:47:46.216Z,1031.09
2019-04-18T07:48:55.650Z,1031.1
2019-04-18T07:50:04.801Z,1031.06
2019-04-18T07:51:15.101Z,1031.08
2019-04-18T07:52:24.262Z,1031.1
2019-04-18T07:53:33.669Z,1031.12
2019-04-18T07:54:42.567Z,1031.11
2019-04-18T07:55:51.718Z,1031.13
2019-04-18T07:57:03.979Z,1031.15
2019-04-18T07:58:32.538Z,1031.13
2019-04-18T07:59:42.069Z,1031.15
2019-04-18T08:00:53.921Z,1031.22
2019-04-18T08:02:02.803Z,1031.22
2019-04-18T08:03:13.751Z,1031.23
2019-04-18T08:04:41.016Z,1031.25
2019-04-18T08:05:49.886Z,1031.23
2019-04-18T08:06:59.091Z,1031.24
2019-04-18T08:08:08.463Z,1031.23
2019-04-18T08:09:18.013Z,1031.23
2019-04-18T08:10:27.053Z,1031.26
2019-04-18T08:11:36.267Z,1031.27
2019-04-18T08:12:45.410Z,1031.27
2019-04-18T08:13:54.285Z,1031.22
2019-04-18T08:15:03.445Z,1031.26
2019-04-18T08:16:12.867Z,1031.27
2019-04-18T08:17:22.862Z,1031.29
2019-04-18T08:18:32.005Z,1031.3
2019-04-18T08:19:44.305Z,1031.3
2019-04-18T08:20:56.393Z,1031.31
2019-04-18T08:22:07.801Z,1031.28
2019-04-18T08:23:24.514Z,1031.28
2019-04-18T08:24:44.736Z,1031.27
2019-04-18T08:25:54.949Z,1031.31
2019-04-18T08:27:04.597Z,1031.29
2019-04-18T08:28:15.462Z,1031.34
2019-04-18T08:29:28.151Z,1031.29
2019-04-18T08:30:37.295Z,1031.37
2019-04-18T08:31:46.259Z,1031.33
2019-04-18T08:32:55.408Z,1031.36
2019-04-18T08:34:04.348Z,1031.33
2019-04-18T08:35:14.008Z,1031.36
2019-04-18T08:36:23.150Z,1031.35
2019-04-18T08:37:32.030Z,1031.34
2019-04-18T08:38:41.897Z,1031.34
2019-04-18T08:39:51.286Z,1031.33
2019-04-18T08:41:00.428Z,1031.36
2019-04-18T08:42:09.602Z,1031.37
2019-04-18T08:43:18.749Z,1031.36
2019-04-18T08:44:31.452Z,1031.33
2019-04-18T08:45:40.434Z,1031.37
2019-04-18T08:46:52.909Z,1031.37
2019-04-18T08:48:02.334Z,1031.35
2019-04-18T08:49:15.143Z,1031.33
2019-04-18T08:50:24.908Z,1031.31
2019-04-18T08:51:34.276Z,1031.35
2019-04-18T08:52:43.178Z,1031.33
2019-04-18T08:53:55.067Z,1031.32
2019-04-18T08:55:03.941Z,1031.32
2019-04-18T08:56:13.362Z,1031.37
2019-04-18T08:57:24.828Z,1031.35
2019-04-18T08:58:34.178Z,1031.3
2019-04-18T08:59:47.011Z,1031.33
2019-04-18T09:00:56.583Z,1031.3
2019-04-18T09:02:05.758Z,1031.32
2019-04-18T09:03:23.981Z,1031.34
2019-04-18T09:04:44.886Z,1031.28
2019-04-18T09:06:30.292Z,1031.31
2019-04-18T09:07:44.325Z,1031.29
2019-04-18T09:09:04.781Z,1031.29
2019-04-18T09:10:19.789Z,1031.25
2019-04-18T09:11:33.588Z,1031.25
2019-04-18T09:12:46.107Z,1031.27
2019-04-18T09:13:57.469Z,1031.26
2019-04-18T09:15:21.667Z,1031.29
2019-04-18T09:16:33.770Z,1031.24
2019-04-18T09:17:48.705Z,1031.24
2019-04-18T09:19:01.289Z,1031.23
2019-04-18T09:20:19.033Z,1031.24
2019-04-18T09:21:39.419Z,1031.26
2019-04-18T09:22:56.568Z,1031.25
2019-04-18T09:24:20.185Z,1031.23
2019-04-18T09:25:34.608Z,1031.25
2019-04-18T09:26:46.029Z,1031.26
2019-04-18T09:27:58.314Z,1031.29
2019-04-18T09:29:12.070Z,1031.33
2019-04-18T09:30:24.404Z,1031.26
2019-04-18T09:31:34.016Z,1031.28
2019-04-18T09:32:47.188Z,1031.26
2019-04-18T09:33:59.374Z,1031.25
2019-04-18T09:35:14.606Z,1031.23
2019-04-18T09:36:26.877Z,1031.24
2019-04-18T09:37:38.066Z,1031.25
2019-04-18T09:38:47.211Z,1031.21
2019-04-18T09:39:56.356Z,1031.2
2019-04-18T09:41:05.332Z,1031.22
2019-04-18T09:42:14.768Z,1031.25
2019-04-18T09:43:26.393Z,1031.21
2019-04-18T09:44:40.450Z,1031.2
2019-04-18T09:45:54.166Z,1031.21
2019-04-18T09:47:05.537Z,1031.17
2019-04-18T09:48:23.914Z,1031.2
2019-04-18T09:49:39.214Z,1031.2
2019-04-18T09:50:49.011Z,1031.21
2019-04-18T09:51:59.572Z,1031.17
2019-04-18T09:53:09.140Z,1031.18
2019-04-18T09:54:18.057Z,1031.23
2019-04-18T09:55:28.304Z,1031.2
2019-04-18T09:56:37.467Z,1031.16
2019-04-18T09:57:46.674Z,1031.2
2019-04-18T09:58:56.090Z,1031.15
2019-04-18T10:00:10.593Z,1031.18
2019-04-18T10:01:28.945Z,1031.2
2019-04-18T10:02:38.092Z,1031.16
2019-04-18T10:03:47.507Z,1031.12
2019-04-18T10:04:56.664Z,1031.12
2019-04-18T10:06:21.514Z,1031.13
2019-04-18T10:07:30.382Z,1031.1
2019-04-18T10:08:39.387Z,1031.13
2019-04-18T10:09:48.529Z,1031.15
2019-04-18T10:11:00.240Z,1031.14
2019-04-18T10:12:19.165Z,1031.13
2019-04-18T10:13:36.301Z,1031.12
2019-04-18T10:14:45.177Z,1031.12
2019-04-18T10:15:58.583Z,1031.11
2019-04-18T10:17:14.680Z,1031.13
2019-04-18T10:18:30.744Z,1031.09
2019-04-18T10:19:40.687Z,1031.07
2019-04-18T10:20:50.213Z,1031.1
2019-04-18T10:22:03.353Z,1031.09
2019-04-18T10:23:12.244Z,1031.09
2019-04-18T10:24:26.900Z,1031.06
2019-04-18T10:25:37.077Z,1031.09
2019-04-18T10:26:50.625Z,1031.01
2019-04-18T10:27:59.793Z,1031.04
2019-04-18T10:29:08.680Z,1031.07
2019-04-18T10:30:27.538Z,1031.06
2019-04-18T10:31:39.123Z,1031.01
2019-04-18T10:32:48.541Z,1031.02
2019-04-18T10:33:57.956Z,1031.01
2019-04-18T10:35:15.205Z,1031.04
2019-04-18T10:36:27.759Z,1031.06
2019-04-18T10:37:37.226Z,1031.04
2019-04-18T10:38:47.314Z,1031.01
2019-04-18T10:39:58.550Z,1031.02
2019-04-18T10:41:07.704Z,1031
2019-04-18T10:42:17.180Z,1030.99
2019-04-18T10:43:26.067Z,1030.99
2019-04-18T10:44:35.217Z,1031
2019-04-18T10:45:44.101Z,1031.05
2019-04-18T10:46:53.563Z,1031
2019-04-18T10:48:03.013Z,1031.01
2019-04-18T10:49:13.076Z,1031.01
2019-04-18T10:50:21.962Z,1030.97
2019-04-18T10:51:31.645Z,1030.99
2019-04-18T10:52:41.126Z,1031.02
2019-04-18T10:53:50.009Z,1030.97
2019-04-18T10:54:58.892Z,1030.97
2019-04-18T10:56:08.051Z,1030.94
2019-04-18T10:57:17.694Z,1030.96
2019-04-18T10:58:26.622Z,1030.94
2019-04-18T10:59:35.517Z,1030.91
2019-04-18T11:00:44.683Z,1030.88
2019-04-18T11:01:54.386Z,1030.86
2019-04-18T11:03:04.303Z,1030.86
2019-04-18T11:04:19.721Z,1030.88
2019-04-18T11:05:32.070Z,1030.89
2019-04-18T11:06:41.230Z,1030.85
2019-04-18T11:07:50.133Z,1030.91
2019-04-18T11:08:59.276Z,1030.82
2019-04-18T11:10:09.472Z,1030.82
2019-04-18T11:11:19.157Z,1030.86
2019-04-18T11:12:28.446Z,1030.82
2019-04-18T11:13:37.333Z,1030.82
2019-04-18T11:14:46.293Z,1030.81
2019-04-18T11:15:55.321Z,1030.78
2019-04-18T11:17:04.479Z,1030.75
2019-04-18T11:18:13.910Z,1030.77
2019-04-18T11:19:22.984Z,1030.77
2019-04-18T11:20:31.862Z,1030.79
2019-04-18T11:21:40.740Z,1030.78
2019-04-18T11:22:50.172Z,1030.77
2019-04-18T11:23:59.583Z,1030.8
2019-04-18T11:25:09.647Z,1030.77
2019-04-18T11:26:18.787Z,1030.75
2019-04-18T11:27:29.952Z,1030.73
2019-04-18T11:28:42.552Z,1030.72
2019-04-18T11:29:51.425Z,1030.78
2019-04-18T11:31:00.668Z,1030.73
2019-04-18T11:32:10.365Z,1030.76
2019-04-18T11:33:23.201Z,1030.75
2019-04-18T11:34:32.087Z,1030.75
2019-04-18T11:35:44.109Z,1030.74
2019-04-18T11:36:53.250Z,1030.74
2019-04-18T11:38:03.656Z,1030.75
2019-04-18T11:39:13.439Z,1030.75
2019-04-18T11:40:30.384Z,1030.77
2019-04-18T11:41:42.177Z,1030.71
2019-04-18T11:42:51.072Z,1030.72
2019-04-18T11:44:00.217Z,1030.71
2019-04-18T11:45:09.465Z,1030.67
2019-04-18T11:46:19.161Z,1030.76
2019-04-18T11:47:28.310Z,1030.61
2019-04-18T11:48:37.193Z,1030.62
2019-04-18T11:49:46.612Z,1030.62
2019-04-18T11:50:55.543Z,1030.58
2019-04-18T11:52:04.423Z,1030.56
2019-04-18T11:53:13.624Z,1030.55
2019-04-18T11:54:23.638Z,1030.57
2019-04-18T11:55:32.578Z,1030.5
2019-04-18T11:56:41.767Z,1030.56
2019-04-18T11:57:50.671Z,1030.5
2019-04-18T11:58:59.819Z,1030.57
2019-04-18T12:00:12.250Z,1030.52
2019-04-18T12:01:30.125Z,1030.51
2019-04-18T12:02:39.879Z,1030.47
2019-04-18T12:03:49.308Z,1030.48
2019-04-18T12:04:58.754Z,1030.44
2019-04-18T12:06:07.933Z,1030.44
2019-04-18T12:07:16.932Z,1030.46
2019-04-18T12:08:26.450Z,1030.39
2019-04-18T12:09:35.601Z,1030.39
2019-04-18T12:10:44.490Z,1030.42
2019-04-18T12:11:53.633Z,1030.43
2019-04-18T12:13:03.687Z,1030.44
2019-04-18T12:14:12.914Z,1030.39
2019-04-18T12:15:22.065Z,1030.4
2019-04-18T12:16:31.216Z,1030.44
2019-04-18T12:17:44.486Z,1030.43
2019-04-18T12:18:54.069Z,1030.44
2019-04-18T12:20:04.161Z,1030.45
2019-04-18T12:21:14.832Z,1030.38
2019-04-18T12:22:26.594Z,1030.43
2019-04-18T12:23:42.123Z,1030.43
2019-04-18T12:24:51.280Z,1030.35
2019-04-18T12:26:01.698Z,1030.41
2019-04-18T12:27:10.619Z,1030.41
2019-04-18T12:28:19.811Z,1030.38
2019-04-18T12:29:28.687Z,1030.35
2019-04-18T12:30:41.700Z,1030.39
2019-04-18T12:31:51.275Z,1030.38
2019-04-18T12:33:01.428Z,1030.35
2019-04-18T12:34:10.927Z,1030.37
2019-04-18T12:35:29.712Z,1030.37
2019-04-18T12:36:38.853Z,1030.34
2019-04-18T12:37:48.100Z,1030.31
2019-04-18T12:38:57.069Z,1030.39
2019-04-18T12:40:05.984Z,1030.31
2019-04-18T12:41:15.167Z,1030.31
2019-04-18T12:42:26.556Z,1030.32
2019-04-18T12:43:35.492Z,1030.32
2019-04-18T12:44:44.658Z,1030.34
2019-04-18T12:45:54.074Z,1030.38
2019-04-18T12:47:04.686Z,1030.33
2019-04-18T12:48:13.825Z,1030.33
2019-04-18T12:49:27.151Z,1030.37
2019-04-18T12:50:36.307Z,1030.35
2019-04-18T12:51:45.464Z,1030.34
2019-04-18T12:53:16.406Z,1030.33
2019-04-18T12:54:25.276Z,1030.33
2019-04-18T12:55:34.185Z,1030.33
2019-04-18T12:56:43.365Z,1030.29
2019-04-18T12:57:52.244Z,1030.3
2019-04-18T12:59:01.547Z,1030.28
2019-04-18T13:00:11.282Z,1030.28
2019-04-18T13:01:20.444Z,1030.26
2019-04-18T13:02:30.262Z,1030.29
2019-04-18T13:03:39.259Z,1030.3
2019-04-18T13:04:51.392Z,1030.27
2019-04-18T13:06:01.456Z,1030.26
2019-04-18T13:07:11.713Z,1030.32
2019-04-18T13:08:21.131Z,1030.27
2019-04-18T13:09:32.879Z,1030.21
2019-04-18T13:10:42.835Z,1030.26
2019-04-18T13:11:52.301Z,1030.28
2019-04-18T13:13:02.047Z,1030.27
2019-04-18T13:14:15.468Z,1030.22
2019-04-18T13:15:24.889Z,1030.26
2019-04-18T13:16:33.761Z,1030.21
2019-04-18T13:17:43.271Z,1030.23
2019-04-18T13:18:52.419Z,1030.2
2019-04-18T13:20:05.883Z,1030.21
2019-04-18T13:21:15.801Z,1030.17
2019-04-18T13:22:24.808Z,1030.17
2019-04-18T13:23:33.963Z,1030.22
2019-04-18T13:24:42.834Z,1030.19
2019-04-18T13:25:51.709Z,1030.21
2019-04-18T13:27:02.074Z,1030.21
2019-04-18T13:28:11.263Z,1030.19
2019-04-18T13:29:20.403Z,1030.23
2019-04-18T13:30:29.562Z,1030.21
2019-04-18T13:31:38.433Z,1030.2
2019-04-18T13:33:02.888Z,1030.18
2019-04-18T13:34:16.195Z,1030.19
2019-04-18T13:35:25.786Z,1030.21
2019-04-18T13:36:35.225Z,1030.18
2019-04-18T13:37:44.365Z,1030.14
2019-04-18T13:38:53.774Z,1030.14
2019-04-18T13:40:07.784Z,1030.2
2019-04-18T13:41:17.294Z,1030.18
2019-04-18T13:42:26.428Z,1030.14
2019-04-18T13:43:35.309Z,1030.2
2019-04-18T13:44:44.463Z,1030.15
2019-04-18T13:45:53.984Z,1030.12
2019-04-18T13:47:09.989Z,1030.18
2019-04-18T13:48:19.141Z,1030.17
2019-04-18T13:49:28.018Z,1030.16
2019-04-18T13:50:37.157Z,1030.13
2019-04-18T13:51:46.570Z,1030.09
2019-04-18T13:52:56.276Z,1030.13
2019-04-18T13:54:08.863Z,1030.12
2019-04-18T13:55:18.518Z,1030.1
2019-04-18T13:56:27.663Z,1030.08
2019-04-18T13:57:36.862Z,1030.13
2019-04-18T13:58:46.500Z,1030.13
2019-04-18T13:59:56.293Z,1030.11
2019-04-18T14:01:06.333Z,1030.06
2019-04-18T14:02:20.238Z,1030.04
2019-04-18T14:03:29.782Z,1030.05
2019-04-18T14:04:39.239Z,1030.08
2019-04-18T14:05:51.330Z,1030.09
2019-04-18T14:07:01.873Z,1030.09
2019-04-18T14:08:11.008Z,1030.05
2019-04-18T14:09:19.884Z,1030.06
2019-04-18T14:10:28.764Z,1030.02
2019-04-18T14:11:38.215Z,1030.05
2019-04-18T14:12:47.123Z,1030.02
2019-04-18T14:13:57.568Z,1030.05
2019-04-18T14:15:07.733Z,1029.99
2019-04-18T14:16:17.319Z,1030
2019-04-18T14:17:26.734Z,1029.95
2019-04-18T14:18:36.600Z,1029.94
2019-04-18T14:19:46.021Z,1029.94
2019-04-18T14:20:55.802Z,1029.95